createdAt,value
2023-01-28T00:01:46.553Z,1.00
2023-01-28T00:04:16.705Z,1.00
2023-01-28T00:06:46.032Z,1.00
2023-01-28T00:09:14.890Z,1.10
2023-01-28T00:11:43.795Z,1.00
2023-01-28T00:14:13.843Z,1.00
2023-01-28T00:16:42.730Z,1.00
2023-01-28T00:19:11.846Z,1.00
2023-01-28T00:21:42.053Z,1.00
2023-01-28T00:24:11.080Z,1.00
2023-01-28T00:26:39.973Z,1.00
2023-01-28T00:29:08.962Z,1.00
2023-01-28T00:31:37.826Z,0.90
2023-01-28T00:34:06.675Z,0.90
2023-01-28T00:36:39.578Z,0.90
2023-01-28T00:39:15.988Z,0.90
2023-01-28T00:41:44.822Z,0.90
2023-01-28T00:44:13.875Z,0.90
2023-01-28T00:46:43.039Z,0.90
2023-01-28T00:49:11.943Z,0.90
2023-01-28T00:51:40.776Z,0.90
2023-01-28T00:54:13.798Z,0.90
2023-01-28T00:56:42.521Z,0.90
2023-01-28T00:59:11.411Z,0.90
2023-01-28T01:01:40.307Z,0.90
2023-01-28T01:04:09.085Z,0.80
2023-01-28T01:06:40.820Z,0.90
2023-01-28T01:09:14.040Z,0.90
2023-01-28T01:11:42.939Z,0.90
2023-01-28T01:14:12.752Z,0.90
2023-01-28T01:16:41.630Z,0.90
2023-01-28T01:19:10.416Z,0.90
2023-01-28T01:21:39.247Z,0.90
2023-01-28T01:24:10.468Z,0.90
2023-01-28T01:26:39.315Z,0.90
2023-01-28T01:29:09.953Z,0.90
2023-01-28T01:31:38.915Z,0.80
2023-01-28T01:34:07.810Z,0.80
2023-01-28T01:36:36.585Z,0.90
2023-01-28T01:39:05.515Z,0.90
2023-01-28T01:41:35.687Z,0.90
2023-01-28T01:44:07.102Z,0.90
2023-01-28T01:46:43.858Z,0.90
2023-01-28T01:49:21.604Z,0.80
2023-01-28T01:51:57.527Z,0.80
2023-01-28T01:54:29.915Z,0.80
2023-01-28T01:57:01.701Z,0.80
2023-01-28T01:59:34.603Z,0.80
2023-01-28T02:02:08.551Z,0.90
2023-01-28T02:04:41.510Z,0.90
2023-01-28T02:07:13.271Z,0.90
2023-01-28T02:09:43.031Z,0.90
2023-01-28T02:12:17.515Z,0.90
2023-01-28T02:14:52.147Z,0.90
2023-01-28T02:17:21.961Z,0.80
2023-01-28T02:19:59.212Z,0.80
2023-01-28T02:23:14.436Z,0.70
2023-01-28T02:26:41.136Z,0.70
2023-01-28T02:29:19.837Z,0.80
2023-01-28T02:31:55.907Z,0.70
2023-01-28T02:34:37.550Z,0.70
2023-01-28T02:37:16.083Z,0.70
2023-01-28T02:39:50.193Z,0.70
2023-01-28T02:42:26.117Z,0.70
2023-01-28T02:44:56.783Z,0.70
2023-01-28T02:47:43.283Z,0.70
2023-01-28T02:50:15.652Z,0.70
2023-01-28T02:53:17.311Z,0.70
2023-01-28T02:55:55.402Z,0.70
2023-01-28T02:58:38.781Z,0.70
2023-01-28T03:01:24.790Z,0.70
2023-01-28T03:04:04.224Z,0.70
2023-01-28T03:06:39.414Z,0.70
2023-01-28T03:09:23.158Z,0.70
2023-01-28T03:12:15.268Z,0.70
2023-01-28T03:15:08.154Z,0.70
2023-01-28T03:18:04.495Z,0.60
2023-01-28T03:21:00.121Z,0.70
2023-01-28T03:23:56.846Z,0.60
2023-01-28T03:26:47.195Z,0.60
2023-01-28T03:29:37.296Z,0.50
2023-01-28T03:32:24.147Z,0.50
2023-01-28T03:35:13.114Z,0.50
2023-01-28T03:37:42.336Z,0.50
2023-01-28T03:40:13.221Z,0.40
2023-01-28T03:42:41.928Z,0.40
2023-01-28T03:45:12.848Z,0.40
2023-01-28T03:47:41.967Z,0.40
2023-01-28T03:50:13.039Z,0.30
2023-01-28T03:52:41.978Z,0.40
2023-01-28T03:55:15.078Z,0.40
2023-01-28T03:57:45.003Z,0.40
2023-01-28T04:00:18.179Z,0.40
2023-01-28T04:02:47.066Z,0.40
2023-01-28T04:05:19.995Z,0.40
2023-01-28T04:07:51.855Z,0.40
2023-01-28T04:10:20.816Z,0.50
2023-01-28T04:12:51.414Z,0.40
2023-01-28T04:15:20.294Z,0.40
2023-01-28T04:17:50.018Z,0.40
2023-01-28T04:20:20.431Z,0.40
2023-01-28T04:22:49.278Z,0.40
2023-01-28T04:25:18.379Z,0.30
2023-01-28T04:27:47.128Z,0.30
2023-01-28T04:30:16.227Z,0.40
2023-01-28T04:32:45.038Z,0.40
2023-01-28T04:35:14.090Z,0.40
2023-01-28T04:37:44.952Z,0.40
2023-01-28T04:40:14.922Z,0.30
2023-01-28T04:42:43.798Z,0.30
2023-01-28T04:45:13.318Z,0.30
2023-01-28T04:47:43.893Z,0.30
2023-01-28T04:50:12.797Z,0.30
2023-01-28T04:52:43.330Z,0.30
2023-01-28T04:55:13.356Z,0.30
2023-01-28T04:57:42.363Z,0.30
2023-01-28T05:00:12.679Z,0.30
2023-01-28T05:02:41.489Z,0.20
2023-01-28T05:05:10.781Z,0.30
2023-01-28T05:07:39.792Z,0.20
2023-01-28T05:10:11.727Z,0.20
2023-01-28T05:12:40.640Z,0.20
2023-01-28T05:15:10.903Z,0.20
2023-01-28T05:17:39.706Z,0.30
2023-01-28T05:20:10.419Z,0.30
2023-01-28T05:22:39.279Z,0.30
2023-01-28T05:25:11.391Z,0.30
2023-01-28T05:27:40.137Z,0.30
2023-01-28T05:30:11.039Z,0.30
2023-01-28T05:32:39.856Z,0.20
2023-01-28T05:35:09.905Z,0.30
2023-01-28T05:37:38.667Z,0.20
2023-01-28T05:40:11.103Z,0.20
2023-01-28T05:42:39.881Z,0.30
2023-01-28T05:45:10.565Z,0.30
2023-01-28T05:47:39.610Z,0.30
2023-01-28T05:50:10.132Z,0.30
2023-01-28T05:52:39.003Z,0.30
2023-01-28T05:55:11.021Z,0.30
2023-01-28T05:57:39.858Z,0.30
2023-01-28T06:00:10.544Z,0.30
2023-01-28T06:02:39.284Z,0.30
2023-01-28T06:05:09.156Z,0.30
2023-01-28T06:07:38.185Z,0.30
2023-01-28T06:10:10.451Z,0.30
2023-01-28T06:12:39.305Z,0.30
2023-01-28T06:15:09.548Z,0.30
2023-01-28T06:17:38.491Z,0.30
2023-01-28T06:20:09.101Z,0.30
2023-01-28T06:22:37.911Z,0.30
2023-01-28T06:25:09.909Z,0.30
2023-01-28T06:27:38.821Z,0.30
2023-01-28T06:30:09.643Z,0.30
2023-01-28T06:32:38.405Z,0.30
2023-01-28T06:35:08.261Z,0.30
2023-01-28T06:37:36.988Z,0.30
2023-01-28T06:40:06.676Z,0.30
2023-01-28T06:42:37.096Z,0.30
2023-01-28T06:45:06.912Z,0.40
2023-01-28T06:47:35.648Z,0.40
2023-01-28T06:50:04.608Z,0.40
2023-01-28T06:52:33.586Z,0.40
2023-01-28T06:55:02.703Z,0.40
2023-01-28T06:57:31.572Z,0.40
2023-01-28T07:00:01.931Z,0.40
2023-01-28T07:02:30.897Z,0.40
2023-01-28T07:04:59.655Z,0.40
2023-01-28T07:07:28.399Z,0.50
2023-01-28T07:09:57.202Z,0.50
2023-01-28T07:12:26.254Z,0.50
2023-01-28T07:14:55.042Z,0.50
2023-01-28T07:17:25.311Z,0.50
2023-01-28T07:19:54.266Z,0.60
2023-01-28T07:22:23.096Z,0.60
2023-01-28T07:24:52.330Z,0.60
2023-01-28T07:27:21.140Z,0.60
2023-01-28T07:29:49.970Z,0.60
2023-01-28T07:32:18.821Z,0.60
2023-01-28T07:34:49.052Z,0.60
2023-01-28T07:37:17.853Z,0.70
2023-01-28T07:39:46.729Z,0.60
2023-01-28T07:42:15.787Z,0.70
2023-01-28T07:44:44.611Z,0.70
2023-01-28T07:47:13.454Z,0.70
2023-01-28T07:49:42.324Z,0.70
2023-01-28T07:52:12.710Z,0.90
2023-01-28T07:54:41.515Z,1.00
2023-01-28T07:57:11.236Z,1.10
2023-01-28T07:59:39.984Z,1.10
2023-01-28T08:02:13.455Z,1.20
2023-01-28T08:04:42.347Z,1.30
2023-01-28T08:07:12.762Z,1.30
2023-01-28T08:09:41.712Z,1.40
2023-01-28T08:12:10.505Z,1.40
2023-01-28T08:14:39.197Z,1.40
2023-01-28T08:17:07.954Z,1.30
2023-01-28T08:19:36.694Z,1.40
2023-01-28T08:22:05.505Z,1.30
2023-01-28T08:24:35.683Z,1.30
2023-01-28T08:27:05.069Z,1.30
2023-01-28T08:29:34.536Z,1.30
2023-01-28T08:32:03.367Z,1.30
2023-01-28T08:34:32.459Z,1.40
2023-01-28T08:37:01.177Z,1.40
2023-01-28T08:39:29.950Z,1.40
2023-01-28T08:42:00.331Z,1.40
2023-01-28T08:44:29.135Z,1.50
2023-01-28T08:46:57.879Z,1.50
2023-01-28T08:49:26.861Z,1.50
2023-01-28T08:51:56.294Z,1.50
2023-01-28T08:54:25.205Z,1.50
2023-01-28T08:56:54.087Z,1.50
2023-01-28T08:59:24.296Z,1.40
2023-01-28T09:01:53.272Z,1.50
2023-01-28T09:04:22.406Z,1.60
2023-01-28T09:06:51.249Z,1.60
2023-01-28T09:09:20.357Z,1.70
2023-01-28T09:11:49.059Z,1.70
2023-01-28T09:14:17.918Z,1.70
2023-01-28T09:16:48.116Z,1.60
2023-01-28T09:19:17.104Z,1.60
2023-01-28T09:21:45.894Z,1.60
2023-01-28T09:24:14.634Z,1.70
2023-01-28T09:26:44.608Z,1.60
2023-01-28T09:29:13.413Z,1.60
2023-01-28T09:31:42.877Z,1.70
2023-01-28T09:34:13.123Z,1.70
2023-01-28T09:36:42.201Z,1.60
2023-01-28T09:39:11.045Z,1.60
2023-01-28T09:41:56.732Z,1.60
2023-01-28T09:44:46.112Z,1.60
2023-01-28T09:47:27.429Z,1.60
2023-01-28T09:50:04.319Z,1.60
2023-01-28T09:52:40.356Z,1.60
2023-01-28T09:55:21.417Z,1.60
2023-01-28T09:57:55.486Z,1.60
2023-01-28T10:00:34.388Z,1.60
2023-01-28T10:03:23.128Z,1.60
2023-01-28T10:06:06.086Z,1.70
2023-01-28T10:09:01.626Z,1.70
2023-01-28T10:11:51.408Z,1.80
2023-01-28T10:14:33.753Z,1.80
2023-01-28T10:17:14.359Z,1.70
2023-01-28T10:19:50.493Z,1.80
2023-01-28T10:22:26.633Z,1.80
2023-01-28T10:25:02.003Z,1.80
2023-01-28T10:27:32.993Z,1.80
2023-01-28T10:30:17.990Z,1.70
2023-01-28T10:32:54.096Z,1.70
2023-01-28T10:35:24.226Z,1.70
2023-01-28T10:38:02.558Z,1.70
2023-01-28T10:40:31.387Z,1.80
2023-01-28T10:43:00.141Z,1.80
2023-01-28T10:45:35.903Z,1.80
2023-01-28T10:48:13.302Z,1.80
2023-01-28T10:50:53.677Z,1.80
2023-01-28T10:53:37.408Z,1.80
2023-01-28T10:56:10.695Z,1.90
2023-01-28T10:58:58.873Z,1.90
2023-01-28T11:01:39.309Z,2.00
2023-01-28T11:04:16.861Z,2.00
2023-01-28T11:07:00.136Z,2.00
2023-01-28T11:09:33.870Z,2.00
2023-01-28T11:12:14.709Z,2.00
2023-01-28T11:14:53.312Z,2.00
2023-01-28T11:17:25.869Z,2.10
2023-01-28T11:19:57.333Z,2.10
2023-01-28T11:22:35.052Z,2.20
2023-01-28T11:25:18.356Z,2.30
2023-01-28T11:27:51.295Z,2.30
2023-01-28T11:30:27.603Z,2.20
2023-01-28T11:33:06.230Z,2.20
2023-01-28T11:35:35.083Z,2.20
2023-01-28T11:38:04.129Z,2.20
2023-01-28T11:40:34.522Z,2.20
2023-01-28T11:43:03.547Z,2.20
2023-01-28T11:45:45.388Z,2.20
2023-01-28T11:48:32.331Z,2.20
2023-01-28T11:51:15.885Z,2.30
2023-01-28T11:54:08.926Z,2.30
2023-01-28T11:57:05.629Z,2.30
2023-01-28T12:00:12.536Z,2.30
2023-01-28T12:03:10.958Z,2.30
2023-01-28T12:05:52.837Z,2.30
2023-01-28T12:08:26.720Z,2.30
2023-01-28T12:11:43.057Z,2.20
2023-01-28T12:14:28.846Z,2.30
2023-01-28T12:17:19.485Z,2.20
2023-01-28T12:20:08.531Z,2.20
2023-01-28T12:23:22.386Z,2.20
2023-01-28T12:26:10.577Z,2.20
2023-01-28T12:29:02.365Z,2.20
2023-01-28T12:32:01.997Z,2.10
2023-01-28T12:35:08.309Z,2.10
2023-01-28T12:38:00.264Z,2.10
2023-01-28T12:41:00.547Z,2.10
2023-01-28T12:43:47.356Z,2.10
2023-01-28T12:46:30.684Z,2.10
2023-01-28T12:49:08.860Z,2.10
2023-01-28T12:51:58.841Z,2.10
2023-01-28T12:54:37.056Z,2.10
2023-01-28T12:57:07.721Z,2.10
2023-01-28T12:59:47.248Z,2.10
2023-01-28T13:02:28.586Z,2.00
2023-01-28T13:05:09.958Z,2.00
2023-01-28T13:07:47.097Z,2.00
2023-01-28T13:10:26.642Z,2.10
2023-01-28T13:12:57.630Z,2.10
2023-01-28T13:15:27.427Z,2.00
2023-01-28T13:17:59.213Z,2.00
2023-01-28T13:20:50.465Z,2.00
2023-01-28T13:23:28.576Z,2.00
2023-01-28T13:25:58.843Z,2.00
2023-01-28T13:28:31.614Z,2.00
2023-01-28T13:31:08.720Z,2.00
2023-01-28T13:33:40.174Z,2.10
2023-01-28T13:36:27.689Z,2.00
2023-01-28T13:39:07.541Z,2.10
2023-01-28T13:41:45.535Z,2.10
2023-01-28T13:44:30.839Z,2.00
2023-01-28T13:47:13.368Z,2.00
2023-01-28T13:49:46.019Z,2.00
2023-01-28T13:52:24.621Z,2.00
2023-01-28T13:55:00.508Z,2.00
2023-01-28T13:58:09.015Z,2.00
2023-01-28T14:01:03.365Z,2.00
2023-01-28T14:04:13.523Z,2.00
2023-01-28T14:07:17.462Z,2.00
2023-01-28T14:10:29.900Z,2.00
2023-01-28T14:13:35.164Z,2.00
2023-01-28T14:16:38.214Z,2.10
2023-01-28T14:19:13.222Z,2.10
2023-01-28T14:21:42.978Z,2.00
2023-01-28T14:24:19.675Z,2.00
2023-01-28T14:27:01.224Z,2.00
2023-01-28T14:29:48.252Z,1.90
2023-01-28T14:32:21.054Z,2.00
2023-01-28T14:34:50.770Z,2.00
2023-01-28T14:37:22.827Z,1.90
2023-01-28T14:39:57.252Z,1.90
2023-01-28T14:42:31.999Z,1.90
2023-01-28T14:45:20.974Z,1.90
2023-01-28T14:48:11.047Z,1.90
2023-01-28T14:51:02.151Z,1.90
2023-01-28T14:54:11.963Z,1.80
2023-01-28T14:57:04.651Z,1.80
2023-01-28T14:59:44.221Z,1.80
2023-01-28T15:02:21.754Z,1.80
2023-01-28T15:04:51.793Z,1.90
2023-01-28T15:07:24.741Z,1.90
2023-01-28T15:10:02.910Z,1.90
2023-01-28T15:12:37.810Z,1.80
2023-01-28T15:15:13.270Z,1.80
2023-01-28T15:17:42.575Z,1.80
2023-01-28T15:20:19.617Z,1.80
2023-01-28T15:22:49.065Z,1.80
2023-01-28T15:25:20.897Z,1.80
2023-01-28T15:27:53.714Z,1.80
2023-01-28T15:30:28.339Z,1.80
2023-01-28T15:33:04.501Z,1.70
2023-01-28T15:35:36.911Z,1.70
2023-01-28T15:38:06.359Z,1.70
2023-01-28T15:40:45.076Z,1.70
2023-01-28T15:43:20.976Z,1.70
2023-01-28T15:45:56.003Z,1.60
2023-01-28T15:48:28.236Z,1.60
2023-01-28T15:51:03.293Z,1.60
2023-01-28T15:53:37.821Z,1.60
2023-01-28T15:56:09.671Z,1.60
2023-01-28T15:58:41.857Z,1.50
2023-01-28T16:01:21.843Z,1.50
2023-01-28T16:04:04.981Z,1.50
2023-01-28T16:06:38.992Z,1.50
2023-01-28T16:09:21.208Z,1.50
2023-01-28T16:11:50.598Z,1.50
2023-01-28T16:14:28.108Z,1.50
2023-01-28T16:16:59.378Z,1.50
2023-01-28T16:19:38.001Z,1.50
2023-01-28T16:22:08.818Z,1.50
2023-01-28T16:24:38.089Z,1.50
2023-01-28T16:27:21.291Z,1.50
2023-01-28T16:29:50.513Z,1.50
2023-01-28T16:32:37.898Z,1.50
2023-01-28T16:35:15.029Z,1.40
2023-01-28T16:37:44.353Z,1.40
2023-01-28T16:40:16.768Z,1.40
2023-01-28T16:42:48.536Z,1.40
2023-01-28T16:45:22.485Z,1.50
2023-01-28T16:47:56.336Z,1.40
2023-01-28T16:50:25.283Z,1.40
2023-01-28T16:52:58.326Z,1.40
2023-01-28T16:55:27.630Z,1.40
2023-01-28T16:57:58.982Z,1.30
2023-01-28T17:00:30.633Z,1.30
2023-01-28T17:03:00.957Z,1.30
2023-01-28T17:05:29.780Z,1.40
2023-01-28T17:07:59.516Z,1.30
2023-01-28T17:10:28.380Z,1.30
2023-01-28T17:12:58.877Z,1.40
2023-01-28T17:15:28.623Z,1.30
2023-01-28T17:17:57.481Z,1.30
2023-01-28T17:20:27.716Z,1.40
2023-01-28T17:22:56.498Z,1.40
2023-01-28T17:25:25.364Z,1.40
2023-01-28T17:27:54.299Z,1.40
2023-01-28T17:30:23.274Z,1.30
2023-01-28T17:32:52.154Z,1.30
2023-01-28T17:35:20.947Z,1.30
2023-01-28T17:37:54.715Z,1.30
2023-01-28T17:40:24.376Z,1.40
2023-01-28T17:42:53.365Z,1.30
2023-01-28T17:45:22.260Z,1.40
2023-01-28T17:47:51.431Z,1.30
2023-01-28T17:50:20.369Z,1.30
2023-01-28T17:52:55.149Z,1.30
2023-01-28T17:55:24.453Z,1.30
2023-01-28T17:57:53.420Z,1.50
2023-01-28T18:00:23.584Z,1.50
2023-01-28T18:02:52.998Z,1.60
2023-01-28T18:05:22.791Z,1.60
2023-01-28T18:07:53.152Z,1.70
2023-01-28T18:10:21.966Z,1.60
2023-01-28T18:12:50.826Z,1.60
2023-01-28T18:15:19.854Z,1.60
2023-01-28T18:17:48.664Z,1.50
2023-01-28T18:20:18.941Z,1.40
2023-01-28T18:22:50.665Z,1.50
2023-01-28T18:25:21.368Z,1.50
2023-01-28T18:27:50.280Z,1.50
2023-01-28T18:30:20.157Z,1.50
2023-01-28T18:32:48.944Z,1.50
2023-01-28T18:35:18.329Z,1.50
2023-01-28T18:37:47.365Z,1.40
2023-01-28T18:40:16.355Z,1.50
2023-01-28T18:42:46.491Z,1.50
2023-01-28T18:45:15.558Z,1.40
2023-01-28T18:47:44.367Z,1.40
2023-01-28T18:50:13.112Z,1.40
2023-01-28T18:52:42.016Z,1.30
2023-01-28T18:55:11.771Z,1.40
2023-01-28T18:57:40.953Z,1.40
2023-01-28T19:00:14.032Z,1.40
2023-01-28T19:02:42.923Z,1.40
2023-01-28T19:05:12.493Z,1.40
2023-01-28T19:07:41.344Z,1.40
2023-01-28T19:10:11.280Z,1.40
2023-01-28T19:12:40.424Z,1.30
2023-01-28T19:15:12.117Z,1.30
2023-01-28T19:17:40.889Z,1.30
2023-01-28T19:20:11.649Z,1.30
2023-01-28T19:22:42.155Z,1.30
2023-01-28T19:25:11.981Z,1.30
2023-01-28T19:27:40.982Z,1.30
2023-01-28T19:30:13.000Z,1.30
2023-01-28T19:32:41.829Z,1.30
2023-01-28T19:35:10.815Z,1.30
2023-01-28T19:37:39.728Z,1.40
2023-01-28T19:40:10.665Z,1.30
2023-01-28T19:42:39.649Z,1.30
2023-01-28T19:45:09.769Z,1.30
2023-01-28T19:47:40.662Z,1.40
2023-01-28T19:50:11.254Z,1.40
2023-01-28T19:52:40.143Z,1.40
2023-01-28T19:55:10.725Z,1.40
2023-01-28T19:57:39.459Z,1.40
2023-01-28T20:00:10.553Z,1.40
2023-01-28T20:02:40.920Z,1.40
2023-01-28T20:05:10.892Z,1.50
2023-01-28T20:07:39.644Z,1.60
2023-01-28T20:10:11.959Z,1.70
2023-01-28T20:12:41.111Z,1.70
2023-01-28T20:15:11.621Z,1.70
2023-01-28T20:17:41.935Z,1.60
2023-01-28T20:20:12.702Z,1.60
2023-01-28T20:22:41.662Z,1.60
2023-01-28T20:25:11.575Z,1.60
2023-01-28T20:27:40.416Z,1.50
2023-01-28T20:30:11.532Z,1.50
2023-01-28T20:32:41.803Z,1.40
2023-01-28T20:35:11.288Z,1.40
2023-01-28T20:37:40.920Z,1.40
2023-01-28T20:40:11.623Z,1.40
2023-01-28T20:42:40.501Z,1.40
2023-01-28T20:45:10.532Z,1.40
2023-01-28T20:47:40.812Z,1.40
2023-01-28T20:50:11.074Z,1.40
2023-01-28T20:52:39.804Z,1.40
2023-01-28T20:55:10.202Z,1.40
2023-01-28T20:57:38.976Z,1.40
2023-01-28T21:00:10.161Z,1.40
2023-01-28T21:02:44.395Z,1.40
2023-01-28T21:05:13.612Z,1.40
2023-01-28T21:07:42.860Z,1.40
2023-01-28T21:10:13.285Z,1.30
2023-01-28T21:12:42.088Z,1.40
2023-01-28T21:15:12.051Z,1.40
2023-01-28T21:17:42.745Z,1.40
2023-01-28T21:20:13.888Z,1.40
2023-01-28T21:22:42.883Z,1.40
2023-01-28T21:25:11.983Z,1.40
2023-01-28T21:27:40.969Z,1.40
2023-01-28T21:30:11.983Z,1.40
2023-01-28T21:32:42.384Z,1.40
2023-01-28T21:35:11.854Z,1.40
2023-01-28T21:37:40.738Z,1.40
2023-01-28T21:40:11.598Z,1.40
2023-01-28T21:42:40.375Z,1.40
2023-01-28T21:45:10.806Z,1.40
2023-01-28T21:47:39.748Z,1.40
2023-01-28T21:50:11.681Z,1.40
2023-01-28T21:52:40.509Z,1.40
2023-01-28T21:55:10.716Z,1.40
2023-01-28T21:57:39.509Z,1.40
2023-01-28T22:00:09.637Z,1.40
2023-01-28T22:02:38.576Z,1.50
2023-01-28T22:05:09.471Z,1.50
2023-01-28T22:07:38.398Z,1.50
2023-01-28T22:10:08.379Z,1.60
2023-01-28T22:12:37.249Z,1.60
2023-01-28T22:15:07.123Z,1.60
2023-01-28T22:17:35.879Z,1.60
2023-01-28T22:20:05.544Z,1.60
2023-01-28T22:22:35.722Z,1.60
2023-01-28T22:25:06.749Z,1.60
2023-01-28T22:27:35.676Z,1.70
2023-01-28T22:30:04.745Z,1.60
2023-01-28T22:32:33.656Z,1.70
2023-01-28T22:35:04.779Z,1.70
2023-01-28T22:37:34.976Z,1.70
2023-01-28T22:40:03.855Z,1.70
2023-01-28T22:42:32.743Z,1.70
2023-01-28T22:45:01.584Z,1.80
2023-01-28T22:47:30.536Z,1.80
2023-01-28T22:49:59.273Z,1.80
2023-01-28T22:52:28.111Z,1.80
2023-01-28T22:54:58.246Z,1.80
2023-01-28T22:57:27.100Z,1.80
2023-01-28T23:00:00.257Z,1.70
2023-01-28T23:02:29.736Z,1.70
2023-01-28T23:04:58.522Z,1.70
2023-01-28T23:07:27.306Z,1.70
2023-01-28T23:09:57.547Z,1.70
2023-01-28T23:12:26.342Z,1.70
2023-01-28T23:15:23.878Z,1.80
2023-01-28T23:18:10.215Z,1.80
2023-01-28T23:20:58.665Z,1.80
2023-01-28T23:23:45.093Z,1.80
2023-01-28T23:26:15.296Z,1.80
2023-01-28T23:28:44.067Z,1.80
2023-01-28T23:31:12.999Z,1.80
2023-01-28T23:33:41.950Z,1.80
2023-01-28T23:36:11.085Z,1.80
2023-01-28T23:38:39.986Z,1.80
2023-01-28T23:41:09.169Z,1.80
2023-01-28T23:43:39.485Z,1.80
2023-01-28T23:46:08.372Z,1.80
2023-01-28T23:48:37.308Z,1.80
2023-01-28T23:51:09.376Z,1.80
2023-01-28T23:53:38.487Z,1.80
2023-01-28T23:56:08.761Z,1.80
2023-01-28T23:58:43.606Z,1.80
